Holiday Hills, Illinois
Current Conditions -  °F | °C
As of 7:55 PM on Thursday 20 Nov 2014 (Local Time) from KUGN Reporting Station
Clear Clear  
Wind Chill:   Ceiling: Unl
Heat Index: 17°   Visibility: 10mi
Dew Point:   Wind: 6mph
Humidity: 59%   Direction: 270°W
Pressure: 30.19"   Gusts: NA
Location:  42.338°N, 88.2857°W
Report Text: KUGN 210155Z AUTO 27005KT 10SM CLR M08/M15 A3019 RMK AO2 SLP245 T10831150
Loading
Personal Weather Stations






























Interactive Weather Map New forecast layout! Learn more

10-Day Weather Forecast

Advertisements
Track Severe Weather on mobile